createdAt,value
2018-02-10T00:01:40.215Z,34.40
2018-02-10T00:04:08.463Z,34.00
2018-02-10T00:06:35.959Z,33.33
2018-02-10T00:09:03.439Z,33.20
2018-02-10T00:11:30.934Z,35.60
2018-02-10T00:13:58.414Z,35.30
2018-02-10T00:16:25.915Z,32.77
2018-02-10T00:18:53.415Z,33.47
2018-02-10T00:21:20.899Z,33.23
2018-02-10T00:23:49.164Z,32.93
2018-02-10T00:26:16.643Z,32.77
2018-02-10T00:28:44.138Z,34.27
2018-02-10T00:31:11.643Z,34.30
2018-02-10T00:33:39.135Z,35.10
2018-02-10T00:36:06.615Z,34.20
2018-02-10T00:38:34.110Z,32.20
2018-02-10T00:41:02.355Z,31.20
2018-02-10T00:43:29.863Z,31.97
2018-02-10T00:45:58.104Z,31.87
2018-02-10T00:48:25.604Z,31.47
2018-02-10T00:50:53.083Z,30.60
2018-02-10T00:53:20.582Z,32.23
2018-02-10T00:55:48.059Z,32.60
2018-02-10T00:58:15.558Z,31.70
2018-02-10T01:00:43.045Z,32.77
2018-02-10T01:03:10.547Z,32.70
2018-02-10T01:05:38.786Z,32.33
2018-02-10T01:08:06.287Z,31.80
2018-02-10T01:10:33.766Z,32.53
2018-02-10T01:13:02.035Z,35.17
2018-02-10T01:15:29.518Z,32.07
2018-02-10T01:17:57.023Z,32.93
2018-02-10T01:20:24.502Z,35.07
2018-02-10T01:22:52.003Z,32.80
2018-02-10T01:25:19.482Z,32.50
2018-02-10T01:27:46.982Z,32.37
2018-02-10T01:30:15.249Z,33.60
2018-02-10T01:32:42.736Z,30.53
2018-02-10T01:35:11.000Z,32.20
2018-02-10T01:37:38.483Z,33.30
2018-02-10T01:40:05.978Z,32.00
2018-02-10T01:42:34.218Z,30.60
2018-02-10T01:45:01.714Z,32.77
2018-02-10T01:47:29.191Z,32.67
2018-02-10T01:53:01.803Z,34.20
2018-02-10T01:55:29.279Z,34.33
2018-02-10T01:57:56.770Z,32.40
2018-02-10T02:00:25.006Z,30.63
2018-02-10T02:02:52.479Z,30.13
2018-02-10T02:05:19.970Z,31.53
2018-02-10T02:07:47.447Z,34.20
2018-02-10T02:10:14.942Z,34.00
2018-02-10T02:12:42.419Z,34.97
2018-02-10T02:15:09.911Z,36.00
2018-02-10T02:17:37.410Z,34.40
2018-02-10T02:20:04.902Z,33.33
2018-02-10T02:22:33.142Z,32.97
2018-02-10T02:25:00.638Z,32.80
2018-02-10T02:27:28.118Z,33.73
2018-02-10T02:29:55.618Z,32.43
2018-02-10T02:32:23.860Z,34.60
2018-02-10T02:34:51.355Z,34.00
2018-02-10T02:37:18.892Z,33.83
2018-02-10T02:39:46.346Z,35.57
2018-02-10T02:42:16.767Z,33.80
2018-02-10T02:44:44.262Z,33.00
2018-02-10T02:47:11.744Z,33.20
2018-02-10T02:49:39.239Z,32.53
2018-02-10T02:52:06.713Z,32.10
2018-02-10T02:54:34.206Z,33.10
2018-02-10T02:57:01.687Z,33.23
2018-02-10T02:59:29.183Z,33.90
2018-02-10T03:01:57.427Z,32.77
2018-02-10T03:04:25.687Z,33.07
2018-02-10T03:06:53.157Z,35.20
2018-02-10T03:09:20.649Z,33.10
2018-02-10T03:11:48.894Z,32.20
2018-02-10T03:14:16.387Z,35.10
2018-02-10T03:16:43.864Z,33.00
2018-02-10T03:19:11.363Z,35.50
2018-02-10T03:21:38.838Z,31.70
2018-02-10T03:24:06.334Z,30.17
2018-02-10T03:26:33.814Z,34.37
2018-02-10T03:29:01.306Z,34.37
2018-02-10T03:31:28.788Z,34.27
2018-02-10T03:33:57.059Z,34.70
2018-02-10T03:36:24.531Z,32.80
2018-02-10T03:38:52.031Z,32.17
2018-02-10T03:41:20.280Z,33.63
2018-02-10T03:43:47.773Z,36.00
2018-02-10T03:46:16.023Z,31.40
2018-02-10T03:48:43.515Z,32.63
2018-02-10T03:51:10.990Z,32.60
2018-02-10T03:53:38.495Z,33.97
2018-02-10T03:56:05.970Z,33.80
2018-02-10T03:58:33.467Z,32.27
2018-02-10T04:01:00.947Z,35.80
2018-02-10T04:03:28.450Z,32.30
2018-02-10T04:05:55.927Z,32.97
2018-02-10T04:08:24.191Z,35.10
2018-02-10T04:10:51.662Z,33.93
2018-02-10T04:13:19.138Z,34.30
2018-02-10T04:15:46.638Z,33.10
2018-02-10T04:18:14.888Z,33.83
2018-02-10T04:20:42.398Z,33.50
2018-02-10T04:23:09.875Z,35.17
2018-02-10T04:25:37.370Z,33.57
2018-02-10T04:28:04.846Z,36.63
2018-02-10T04:30:32.343Z,32.20
2018-02-10T04:32:59.818Z,34.47
2018-02-10T04:35:27.317Z,33.50
2018-02-10T04:37:55.559Z,33.90
2018-02-10T04:40:23.060Z,34.00
2018-02-10T04:42:51.306Z,34.67
2018-02-10T04:45:18.799Z,34.20
2018-02-10T04:47:46.328Z,35.00
2018-02-10T04:50:14.595Z,37.00
2018-02-10T04:52:42.842Z,34.97
2018-02-10T04:55:10.342Z,34.63
2018-02-10T04:57:38.588Z,35.97
2018-02-10T05:00:06.084Z,33.97
2018-02-10T05:02:33.559Z,37.00
2018-02-10T05:05:01.830Z,35.90
2018-02-10T05:07:29.307Z,35.90
2018-02-10T05:09:56.802Z,35.37
2018-02-10T05:12:25.047Z,34.37
2018-02-10T05:14:52.542Z,35.60
2018-02-10T05:17:20.018Z,38.23
2018-02-10T05:19:48.278Z,36.90
2018-02-10T05:22:15.755Z,34.87
2018-02-10T05:24:43.247Z,32.90
2018-02-10T05:27:11.494Z,35.73
2018-02-10T05:29:38.990Z,36.50
2018-02-10T05:32:06.463Z,33.77
2018-02-10T05:34:33.959Z,35.80
2018-02-10T05:37:01.435Z,34.77
2018-02-10T05:39:28.931Z,38.40
2018-02-10T05:41:56.407Z,37.40
2018-02-10T05:44:23.939Z,37.27
2018-02-10T05:46:51.398Z,36.60
2018-02-10T05:49:19.664Z,36.07
2018-02-10T05:51:47.148Z,36.27
2018-02-10T05:54:15.424Z,35.50
2018-02-10T05:56:42.900Z,34.43
2018-02-10T05:59:10.408Z,37.00
2018-02-10T06:01:37.882Z,36.13
2018-02-10T06:04:05.383Z,34.50
2018-02-10T06:06:32.868Z,36.17
2018-02-10T06:09:00.366Z,34.27
2018-02-10T06:11:28.604Z,36.23
2018-02-10T06:13:56.100Z,37.63
2018-02-10T06:16:23.578Z,36.70
2018-02-10T06:18:51.099Z,33.70
2018-02-10T06:21:18.575Z,33.40
2018-02-10T06:23:46.053Z,36.80
2018-02-10T06:26:13.544Z,36.03
2018-02-10T06:28:41.030Z,35.40
2018-02-10T06:31:08.524Z,38.27
2018-02-10T06:33:35.998Z,35.43
2018-02-10T06:36:03.494Z,36.27
2018-02-10T06:38:31.739Z,36.47
2018-02-10T06:41:00.006Z,36.07
2018-02-10T06:43:27.903Z,37.43
2018-02-10T06:45:55.398Z,37.10
2018-02-10T06:48:22.878Z,34.73
2018-02-10T06:50:50.369Z,34.90
2018-02-10T06:53:17.850Z,35.87
2018-02-10T06:55:45.354Z,35.60
2018-02-10T06:58:13.630Z,34.77
2018-02-10T07:00:41.115Z,35.80
2018-02-10T07:03:09.359Z,36.00
2018-02-10T07:05:36.858Z,37.70
2018-02-10T07:08:04.336Z,32.97
2018-02-10T07:10:32.603Z,36.33
2018-02-10T07:13:00.092Z,35.10
2018-02-10T07:15:28.347Z,32.60
2018-02-10T07:17:55.827Z,34.90
2018-02-10T07:20:23.322Z,32.40
2018-02-10T07:22:50.799Z,31.37
2018-02-10T07:25:19.059Z,32.40
2018-02-10T07:27:46.535Z,32.00
2018-02-10T07:30:14.035Z,30.90
2018-02-10T07:32:41.515Z,31.73
2018-02-10T07:35:09.018Z,34.73
2018-02-10T07:37:36.499Z,31.93
2018-02-10T07:40:04.015Z,30.50
2018-02-10T07:42:32.266Z,33.40
2018-02-10T07:44:59.787Z,30.20
2018-02-10T07:47:27.263Z,31.20
2018-02-10T07:49:54.765Z,31.30
2018-02-10T07:52:22.238Z,30.47
2018-02-10T07:54:49.771Z,32.43
2018-02-10T07:57:17.296Z,30.30
2018-02-10T07:59:44.759Z,29.70
2018-02-10T08:02:12.239Z,30.77
2018-02-10T08:04:39.899Z,30.07
2018-02-10T08:07:07.375Z,30.93
2018-02-10T08:09:34.871Z,30.07
2018-02-10T08:12:03.124Z,31.80
2018-02-10T08:14:30.627Z,30.43
2018-02-10T08:16:58.894Z,30.70
2018-02-10T08:19:26.378Z,29.07
2018-02-10T08:21:54.693Z,29.13
2018-02-10T08:24:22.190Z,30.60
2018-02-10T08:26:49.691Z,29.40
2018-02-10T08:29:17.162Z,27.60
2018-02-10T08:31:44.655Z,27.37
2018-02-10T08:34:12.898Z,27.33
2018-02-10T08:36:40.438Z,31.37
2018-02-10T08:39:07.919Z,28.30
2018-02-10T08:41:35.407Z,27.70
2018-02-10T08:44:02.882Z,27.50
2018-02-10T08:46:30.426Z,25.50
2018-02-10T08:48:57.923Z,25.73
2018-02-10T08:51:25.427Z,26.63
2018-02-10T08:53:52.975Z,24.57
2018-02-10T08:56:20.466Z,25.97
2018-02-10T08:58:47.939Z,24.63
2018-02-10T09:01:15.449Z,24.83
2018-02-10T09:03:42.963Z,24.90
2018-02-10T09:06:10.469Z,25.10
2018-02-10T09:08:37.960Z,25.40
2018-02-10T09:11:05.454Z,24.27
2018-02-10T09:13:32.939Z,22.80
2018-02-10T09:16:00.431Z,22.83
2018-02-10T09:18:28.671Z,23.77
2018-02-10T09:20:56.167Z,24.03
2018-02-10T09:23:23.765Z,22.80
2018-02-10T09:25:52.036Z,23.43
2018-02-10T09:28:19.523Z,23.93
2018-02-10T09:30:47.811Z,21.87
2018-02-10T09:33:16.094Z,24.07
2018-02-10T09:35:43.591Z,23.90
2018-02-10T09:38:11.072Z,25.20
2018-02-10T09:40:38.575Z,23.50
2018-02-10T09:43:06.055Z,21.23
2018-02-10T09:45:33.580Z,23.80
2018-02-10T09:48:01.072Z,23.07
2018-02-10T09:50:28.579Z,22.33
2018-02-10T09:52:56.060Z,24.33
2018-02-10T09:55:24.325Z,21.70
2018-02-10T09:57:51.802Z,23.07
2018-02-10T10:00:19.306Z,23.40
2018-02-10T10:02:46.793Z,24.20
2018-02-10T10:05:14.311Z,23.83
2018-02-10T10:07:41.785Z,22.67
2018-02-10T10:10:09.294Z,22.90
2018-02-10T10:12:36.790Z,22.27
2018-02-10T10:15:04.286Z,21.70
2018-02-10T10:17:31.779Z,23.57
2018-02-10T10:20:00.044Z,22.87
2018-02-10T10:22:27.553Z,21.33
2018-02-10T10:24:55.798Z,22.30
2018-02-10T10:27:23.307Z,21.77
2018-02-10T10:29:51.555Z,20.67
2018-02-10T10:32:19.054Z,20.80
2018-02-10T10:34:47.295Z,22.53
2018-02-10T10:37:14.791Z,21.60
2018-02-10T10:39:42.272Z,22.53
2018-02-10T10:42:09.770Z,22.17
2018-02-10T10:44:37.249Z,21.87
2018-02-10T10:47:04.755Z,21.17
2018-02-10T10:49:32.236Z,19.87
2018-02-10T10:51:59.739Z,21.33
2018-02-10T10:54:27.983Z,20.40
2018-02-10T10:56:55.491Z,21.50
2018-02-10T10:59:23.739Z,20.93
2018-02-10T11:01:51.252Z,19.30
2018-02-10T11:04:19.524Z,23.93
2018-02-10T11:06:47.008Z,23.60
2018-02-10T11:09:15.258Z,19.23
2018-02-10T11:11:42.759Z,20.90
2018-02-10T11:14:10.239Z,20.70
2018-02-10T11:16:38.537Z,22.07
2018-02-10T11:19:06.023Z,19.13
2018-02-10T11:21:33.534Z,21.07
2018-02-10T11:24:01.043Z,20.43
2018-02-10T11:26:29.301Z,21.37
2018-02-10T11:28:56.779Z,20.87
2018-02-10T11:31:24.300Z,23.37
2018-02-10T11:33:51.779Z,21.33
2018-02-10T11:36:19.271Z,18.87
2018-02-10T11:38:46.766Z,21.73
2018-02-10T11:41:15.046Z,19.50
2018-02-10T11:43:42.532Z,20.50
2018-02-10T11:46:10.790Z,20.10
2018-02-10T11:48:38.267Z,20.70
2018-02-10T11:51:05.883Z,20.20
2018-02-10T11:53:33.372Z,19.57
2018-02-10T11:56:00.872Z,20.47
2018-02-10T11:58:28.350Z,21.40
2018-02-10T12:00:55.856Z,21.07
2018-02-10T12:03:24.114Z,19.63
2018-02-10T12:05:51.616Z,21.50
2018-02-10T12:08:19.882Z,23.30
2018-02-10T12:10:47.381Z,20.83
2018-02-10T12:13:15.575Z,21.03
2018-02-10T12:15:43.067Z,22.53
2018-02-10T12:18:10.546Z,20.10
2018-02-10T12:20:38.088Z,18.93
2018-02-10T12:23:06.332Z,15.00
2018-02-10T12:25:33.856Z,14.47
2018-02-10T12:28:01.419Z,12.60
2018-02-10T12:30:28.912Z,13.13
2018-02-10T12:32:56.418Z,14.70
2018-02-10T12:35:23.899Z,13.47
2018-02-10T12:37:52.164Z,12.00
2018-02-10T12:40:19.634Z,13.00
2018-02-10T12:42:47.131Z,14.90
2018-02-10T12:45:15.375Z,14.67
2018-02-10T12:47:48.526Z,16.90
2018-02-10T12:50:16.042Z,14.60
2018-02-10T12:52:43.539Z,16.30
2018-02-10T12:55:11.109Z,16.47
2018-02-10T12:57:39.408Z,16.63
2018-02-10T13:00:06.891Z,15.73
2018-02-10T13:02:34.400Z,16.47
2018-02-10T13:05:01.874Z,16.80
2018-02-10T13:07:29.371Z,14.70
2018-02-10T13:09:56.856Z,17.47
2018-02-10T13:12:24.356Z,15.90
2018-02-10T13:14:52.592Z,14.93
2018-02-10T13:17:20.090Z,16.67
2018-02-10T13:19:47.576Z,14.67
2018-02-10T13:22:15.873Z,14.33
2018-02-10T13:24:43.350Z,15.00
2018-02-10T13:27:10.842Z,15.00
2018-02-10T13:29:38.320Z,13.17
2018-02-10T13:32:05.824Z,15.90
2018-02-10T13:34:33.320Z,13.83
2018-02-10T13:37:00.824Z,13.50
2018-02-10T13:39:28.299Z,20.17
2018-02-10T13:41:55.799Z,12.17
2018-02-10T13:44:23.314Z,13.37
2018-02-10T13:46:50.796Z,14.57
2018-02-10T13:49:18.277Z,13.60
2018-02-10T13:51:45.774Z,12.90
2018-02-10T13:54:13.274Z,12.97
2018-02-10T13:56:41.534Z,13.43
2018-02-10T13:59:09.018Z,12.00
2018-02-10T14:01:36.522Z,13.63
2018-02-10T14:04:04.007Z,12.53
2018-02-10T14:06:31.502Z,10.80
2018-02-10T14:08:58.978Z,11.80
2018-02-10T14:11:26.474Z,11.13
2018-02-10T14:13:53.961Z,13.27
2018-02-10T14:16:21.462Z,12.83
2018-02-10T14:18:48.939Z,13.07
2018-02-10T14:21:16.435Z,14.63
2018-02-10T14:23:43.910Z,15.00
2018-02-10T14:26:11.411Z,14.80
2018-02-10T14:28:38.896Z,14.20
2018-02-10T14:31:06.416Z,12.60
2018-02-10T14:33:33.891Z,13.33
2018-02-10T14:36:01.384Z,13.23
2018-02-10T14:38:29.651Z,13.10
2018-02-10T14:40:57.127Z,12.87
2018-02-10T14:43:24.626Z,14.77
2018-02-10T14:45:52.107Z,13.00
2018-02-10T14:48:19.615Z,14.40
2018-02-10T14:50:47.098Z,13.30
2018-02-10T14:53:14.608Z,12.00
2018-02-10T14:55:42.090Z,11.70
2018-02-10T14:58:09.587Z,12.47
2018-02-10T15:00:37.058Z,12.33
2018-02-10T15:03:04.563Z,12.17
2018-02-10T15:05:32.820Z,12.40
2018-02-10T15:08:00.326Z,13.80
2018-02-10T15:10:27.806Z,11.30
2018-02-10T15:12:55.315Z,12.17
2018-02-10T15:15:22.787Z,13.70
2018-02-10T15:17:50.282Z,13.40
2018-02-10T15:20:17.831Z,13.93
2018-02-10T15:22:45.411Z,13.87
2018-02-10T15:25:12.983Z,12.50
2018-02-10T15:27:40.479Z,12.00
2018-02-10T15:30:19.746Z,15.47
2018-02-10T15:32:59.904Z,12.43
2018-02-10T15:35:28.151Z,12.00
2018-02-10T15:37:55.644Z,14.93
2018-02-10T15:40:23.119Z,13.37
2018-02-10T15:42:50.620Z,11.40
2018-02-10T15:45:18.103Z,11.47
2018-02-10T15:47:45.605Z,13.03
2018-02-10T15:50:13.082Z,14.60
2018-02-10T15:52:40.580Z,12.97
2018-02-10T15:55:09.351Z,14.80
2018-02-10T15:57:36.445Z,14.87
2018-02-10T16:00:04.706Z,13.53
2018-02-10T16:02:32.207Z,12.43
2018-02-10T16:05:00.455Z,12.07
2018-02-10T16:07:27.968Z,11.40
2018-02-10T16:09:55.442Z,11.77
2018-02-10T16:12:22.951Z,12.17
2018-02-10T16:14:50.423Z,12.63
2018-02-10T16:17:17.931Z,13.67
2018-02-10T16:19:46.178Z,12.07
2018-02-10T16:22:13.670Z,12.93
2018-02-10T16:24:41.150Z,13.63
2018-02-10T16:27:08.658Z,13.87
2018-02-10T16:29:36.138Z,13.00
2018-02-10T16:32:03.632Z,12.43
2018-02-10T16:34:31.111Z,13.63
2018-02-10T16:36:58.607Z,14.70
2018-02-10T16:39:26.086Z,15.23
2018-02-10T16:41:54.374Z,15.37
2018-02-10T16:44:21.844Z,15.47
2018-02-10T16:46:50.107Z,13.57
2018-02-10T16:49:17.584Z,13.60
2018-02-10T16:51:45.099Z,14.20
2018-02-10T16:57:12.036Z,13.10
2018-02-10T16:59:39.511Z,14.07
2018-02-10T17:02:07.002Z,14.90
2018-02-10T17:04:35.246Z,14.60
2018-02-10T17:07:02.739Z,13.60
2018-02-10T17:09:30.219Z,15.30
2018-02-10T17:11:57.718Z,14.20
2018-02-10T17:14:25.196Z,14.13
2018-02-10T17:16:52.692Z,15.37
2018-02-10T17:19:20.182Z,14.40
2018-02-10T17:21:47.668Z,15.80
2018-02-10T17:24:15.159Z,13.67
2018-02-10T17:26:43.402Z,14.90
2018-02-10T17:29:10.907Z,14.07
2018-02-10T17:31:39.155Z,16.33
2018-02-10T17:34:06.650Z,15.37
2018-02-10T17:36:34.126Z,14.33
2018-02-10T17:39:01.624Z,15.63
2018-02-10T17:41:29.094Z,14.37
2018-02-10T17:43:56.631Z,14.43
2018-02-10T17:46:24.087Z,14.27
2018-02-10T17:48:51.595Z,15.60
2018-02-10T17:51:19.839Z,13.60
2018-02-10T17:53:47.330Z,13.83
2018-02-10T17:56:33.952Z,14.70
2018-02-10T17:59:01.448Z,14.33
2018-02-10T18:01:29.703Z,14.57
2018-02-10T18:03:57.199Z,14.63
2018-02-10T18:06:25.443Z,15.73
2018-02-10T18:08:52.942Z,16.30
2018-02-10T18:11:21.066Z,16.83
2018-02-10T18:13:48.657Z,15.63
2018-02-10T18:16:16.968Z,16.53
2018-02-10T18:18:44.458Z,14.87
2018-02-10T18:21:11.935Z,15.87
2018-02-10T18:23:40.243Z,15.60
2018-02-10T18:26:07.730Z,15.13
2018-02-10T18:28:35.223Z,15.60
2018-02-10T18:31:02.703Z,15.00
2018-02-10T18:33:30.198Z,18.37
2018-02-10T18:35:57.679Z,15.90
2018-02-10T18:38:25.199Z,15.00
2018-02-10T18:40:52.675Z,15.33
2018-02-10T18:43:22.091Z,15.90
2018-02-10T18:45:49.571Z,16.27
2018-02-10T18:48:17.067Z,16.30
2018-02-10T18:50:45.314Z,21.03
2018-02-10T18:53:12.826Z,18.97
2018-02-10T18:55:41.075Z,17.50
2018-02-10T18:58:08.575Z,16.50
2018-02-10T19:00:36.055Z,16.10
2018-02-10T19:03:04.319Z,15.30
2018-02-10T19:05:31.796Z,15.47
2018-02-10T19:07:59.294Z,15.67
2018-02-10T19:10:27.547Z,17.30
2018-02-10T19:12:55.044Z,17.50
2018-02-10T19:15:23.295Z,18.20
2018-02-10T19:17:50.791Z,18.67
2018-02-10T19:20:18.291Z,18.77
2018-02-10T19:22:45.791Z,17.77
2018-02-10T19:25:13.268Z,18.20
2018-02-10T19:27:40.778Z,17.83
2018-02-10T19:30:08.253Z,18.73
2018-02-10T19:32:36.516Z,20.63
2018-02-10T19:35:03.994Z,19.80
2018-02-10T19:37:31.497Z,18.10
2018-02-10T19:39:59.926Z,17.40
2018-02-10T19:42:27.402Z,19.77
2018-02-10T19:44:54.920Z,18.40
2018-02-10T19:47:23.159Z,20.00
2018-02-10T19:49:50.662Z,21.03
2018-02-10T19:52:18.139Z,19.60
2018-02-10T19:54:46.407Z,19.50
2018-02-10T19:57:13.896Z,21.20
2018-02-10T19:59:42.167Z,21.57
2018-02-10T20:02:09.647Z,19.40
2018-02-10T20:04:37.147Z,20.30
2018-02-10T20:07:04.630Z,20.83
2018-02-10T20:09:32.126Z,20.50
2018-02-10T20:11:59.602Z,19.67
2018-02-10T20:14:27.098Z,21.63
2018-02-10T20:16:54.619Z,21.30
2018-02-10T20:19:22.139Z,21.30
2018-02-10T20:21:49.616Z,21.17
2018-02-10T20:24:17.151Z,20.83
2018-02-10T20:26:44.634Z,19.80
2018-02-10T20:29:12.152Z,21.83
2018-02-10T20:31:39.644Z,22.47
2018-02-10T20:34:07.139Z,21.70
2018-02-10T20:36:34.619Z,23.47
2018-02-10T20:39:02.119Z,21.50
2018-02-10T20:41:30.367Z,21.40
2018-02-10T20:43:57.870Z,20.63
2018-02-10T20:46:26.119Z,22.73
2018-02-10T20:48:53.614Z,23.03
2018-02-10T20:51:21.091Z,20.37
2018-02-10T20:53:48.593Z,21.33
2018-02-10T20:56:16.127Z,21.80
2018-02-10T20:58:43.633Z,23.87
2018-02-10T21:01:11.149Z,24.40
2018-02-10T21:03:38.652Z,22.43
2018-02-10T21:06:06.903Z,21.27
2018-02-10T21:08:34.402Z,21.47
2018-02-10T21:11:02.648Z,22.70
2018-02-10T21:13:30.142Z,23.97
2018-02-10T21:15:57.625Z,23.40
2018-02-10T21:18:25.124Z,22.30
2018-02-10T21:20:52.598Z,23.63
2018-02-10T21:23:20.112Z,22.40
2018-02-10T21:25:47.598Z,23.07
2018-02-10T21:28:15.102Z,24.20
2018-02-10T21:30:42.599Z,23.90
2018-02-10T21:33:10.111Z,23.97
2018-02-10T21:35:37.592Z,23.03
2018-02-10T21:38:05.878Z,23.53
2018-02-10T21:40:33.371Z,25.60
2018-02-10T21:43:00.859Z,23.60
2018-02-10T21:45:28.354Z,21.83
2018-02-10T21:47:55.835Z,23.83
2018-02-10T21:50:23.334Z,23.10
2018-02-10T21:52:51.581Z,21.90
2018-02-10T21:55:19.100Z,22.33
2018-02-10T21:57:47.342Z,22.30
2018-02-10T22:00:14.838Z,23.40
2018-02-10T22:02:42.321Z,24.57
2018-02-10T22:05:10.963Z,23.77
2018-02-10T22:07:38.442Z,23.00
2018-02-10T22:10:05.935Z,23.67
2018-02-10T22:12:33.410Z,20.40
2018-02-10T22:15:00.913Z,22.53
2018-02-10T22:17:28.391Z,22.87
2018-02-10T22:19:55.886Z,21.83
2018-02-10T22:22:23.381Z,21.60
2018-02-10T22:24:50.880Z,22.47
2018-02-10T22:27:19.123Z,21.47
2018-02-10T22:29:46.614Z,22.73
2018-02-10T22:32:14.090Z,22.93
2018-02-10T22:34:41.592Z,21.90
2018-02-10T22:37:09.078Z,23.20
2018-02-10T22:39:36.578Z,22.03
2018-02-10T22:42:04.055Z,19.07
2018-02-10T22:44:31.555Z,17.83
2018-02-10T22:46:59.799Z,18.23
2018-02-10T22:49:27.305Z,17.17
2018-02-10T22:51:54.786Z,16.60
2018-02-10T22:54:23.051Z,19.07
2018-02-10T22:56:50.531Z,18.33
2018-02-10T22:59:18.027Z,15.63
2018-02-10T23:01:45.507Z,16.90
2018-02-10T23:04:12.998Z,18.57
2018-02-10T23:06:40.475Z,17.93
2018-02-10T23:09:07.970Z,16.10
2018-02-10T23:11:35.459Z,15.97
2018-02-10T23:14:03.731Z,17.53
2018-02-10T23:16:31.206Z,16.20
2018-02-10T23:18:58.706Z,14.20
2018-02-10T23:21:26.186Z,13.27
2018-02-10T23:23:53.678Z,13.80
2018-02-10T23:26:21.156Z,11.70
2018-02-10T23:28:48.655Z,12.27
2018-02-10T23:31:16.130Z,12.07
2018-02-10T23:33:44.401Z,11.70
2018-02-10T23:36:11.874Z,10.97
2018-02-10T23:38:39.366Z,11.37
2018-02-10T23:41:07.610Z,10.20
2018-02-10T23:43:35.090Z,11.60
2018-02-10T23:46:02.591Z,10.20
2018-02-10T23:48:30.830Z,8.73
2018-02-10T23:50:58.347Z,9.53
2018-02-10T23:53:26.595Z,9.97
2018-02-10T23:55:54.090Z,9.30
2018-02-10T23:58:21.562Z,9.47
